Dawson Springs, KY (42408)

7:55 PM CST on January 27, 2015 (GMT -0600)
Dawson Rd-->Bullock Rd-->Galloway Rd | Change Station
CLOSE
Current Station
Personal Weather Station
Location: Dawson Springs, KY
Elevation: 433 ft
Nearby Weather Stations

Elev 433 ft 37.16 °N, 87.71 °W | Updated 9 seconds ago

Overcast
Overcast
35.7 °F
Feels Like 36 °F
N
1.0
Wind Variable Wind from North
Gusts 2.0 mph

Today
High -- | Low -- °F
--% Chance of Precip.
Yesterday
High -- | Low -- °F
Precip. -- in
6:57 AM 5:09 PM
First Quarter, 59% visible
Pressure 30.24 in
Visibility 7.0 miles
Clouds Overcast 3500 ft
Windchill 36 °F
Dew Point 31 °F
Humidity 84%
Rainfall 0.00 in
Snow Depth Not available.
UV 0.0 out of 12
Pollen .10 out of 12
Air Quality Not available.
Flu Activity Not available.
METAR K2I0 280135Z AUTO 02004KT 7SM OVC035 02/00 A3024 RMK AO2 T00160000

More Conditions Fewer Conditions

Pressure 30.24 in
Visibility 7.0 miles
Clouds Overcast 3500 ft
Windchill 36 °F
Dew Point 31 °F
Humidity 84%
Rainfall 0.00 in
Snow Depth Not available.
UV 0.0 out of 12
Pollen .10 out of 12
Air Quality Not available.
Flu Activity Not available.
METAR K2I0 280135Z AUTO 02004KT 7SM OVC035 02/00 A3024 RMK AO2 T00160000

More Conditions Fewer Conditions

10-Day Weather Forecast

Almanac

Astronomy

Jan. 27, 2015 Rise Set
Actual Time
Civil Twilight
Nautical Twilight
Astronomical Twilight
Moon
Length of Visible Light
Length of Day
Tomorrow will be .
, % of the Moon is Illuminated

Today's Extremes

State Highs State Lows

Community

WunderPhotos

Upload Photos

1,791,036 photos uploaded!

WunderBlogs® & News

Nearby

Air Quality

  Air Quality AQ Index Pollutant
Not available.

Snow Depth

Station Depth Elevation

Earthquake Activity

City Distance Mag. Time & Date
Minimum magnitude displayed is 2.5.

Coastal Water Temperatures

Place Temperature

Nearby Weather Stations